< Typhoon 197617 1976 Season Typhoon 197619 >
Typhoon 197618 (GEORGIA)
General InformationTrack Information on Google Maps || Disaster Info.ResourceGoogle EarthGE AnimationAtom FeedGeoJSON
Detalied Best Track (Time Zone = UTC)
Year Month Day Hour Lat. Long. Pressure (hPa) Wind (kt) Class Image Chart
1976 9 8 00 7.0 159.0 1006 0 2 -- Chart
1976 9 8 06 7.5 158.5 1004 0 2 -- Chart
1976 9 8 12 8.0 158.0 1004 0 2 -- Chart
1976 9 8 18 8.5 157.5 1004 0 2 -- Chart
1976 9 9 00 9.2 156.6 994 0 2 -- Chart
1976 9 9 06 9.4 155.9 990 0 9 -- Chart
1976 9 9 12 9.8 155.0 990 0 9 -- Chart
1976 9 9 18 10.0 153.7 990 0 9 -- Chart
1976 9 10 00 10.2 152.7 990 0 9 -- Chart
1976 9 10 06 10.2 152.1 994 0 9 -- Chart
1976 9 10 12 10.0 151.9 992 0 9 -- Chart
1976 9 10 18 9.9 150.7 994 0 9 -- Chart
1976 9 11 00 10.6 149.8 994 0 9 -- Chart
1976 9 11 06 10.6 149.8 994 0 9 -- Chart
1976 9 11 12 12.0 147.8 996 0 9 -- Chart
1976 9 11 18 12.5 146.8 996 0 9 -- Chart
1976 9 12 00 12.6 146.0 995 0 9 -- Chart
1976 9 12 06 12.4 145.2 998 0 9 -- Chart
1976 9 12 12 12.3 144.7 998 0 9 -- Chart
1976 9 12 18 12.8 143.5 998 0 9 -- Chart
1976 9 13 00 14.0 144.0 998 0 9 -- Chart
1976 9 13 06 14.5 145.0 998 0 9 -- Chart
1976 9 13 12 15.0 145.0 998 0 9 -- Chart
1976 9 13 18 15.6 145.0 998 0 9 -- Chart
1976 9 14 00 16.0 145.0 998 0 9 -- Chart
1976 9 14 06 16.3 145.5 994 0 9 -- Chart
1976 9 14 12 16.6 146.0 996 0 9 -- Chart
1976 9 14 18 16.8 146.5 996 0 2 -- Chart
1976 9 15 00 17.0 147.0 998 0 2 -- Chart
1976 9 15 06 17.6 148.5 994 0 2 -- Chart
1976 9 15 12 18.0 150.0 994 0 2 -- Chart
1976 9 15 18 20.0 151.0 996 0 2 -- Chart
1976 9 16 00 22.0 152.0 996 0 2 -- Chart
1976 9 16 06 23.0 153.5 996 0 2 -- Chart
Japan Meteorological Agency Best Track Data | Correction Date : 1992-10-21
< Typhoon 197617 1976 Season Typhoon 197619 >

Help